createdAt,value
2022-08-16T00:00:45.421Z,31.84
2022-08-16T00:03:13.291Z,31.66
2022-08-16T00:05:48.486Z,31.30
2022-08-16T00:08:36.886Z,31.28
2022-08-16T00:11:05.450Z,31.42
2022-08-16T00:13:41.710Z,31.88
2022-08-16T00:17:01.435Z,31.68
2022-08-16T00:18:58.178Z,31.67
2022-08-16T00:21:25.550Z,31.63
2022-08-16T00:23:57.212Z,31.05
2022-08-16T00:26:36.200Z,30.94
2022-08-16T00:29:05.928Z,31.42
2022-08-16T00:31:58.991Z,31.70
2022-08-16T00:34:21.441Z,31.53
2022-08-16T00:36:49.103Z,31.68
2022-08-16T00:39:23.029Z,31.88
2022-08-16T00:41:51.057Z,31.97
2022-08-16T00:44:20.316Z,32.05
2022-08-16T00:46:54.011Z,31.97
2022-08-16T00:49:39.331Z,31.94
2022-08-16T00:52:30.225Z,31.75
2022-08-16T00:54:59.392Z,31.91
2022-08-16T00:57:27.564Z,31.74
2022-08-16T01:00:20.019Z,31.76
2022-08-16T01:02:51.596Z,31.75
2022-08-16T01:05:19.529Z,31.50
2022-08-16T01:07:53.532Z,31.54
2022-08-16T01:10:32.304Z,31.60
2022-08-16T01:13:01.161Z,31.48
2022-08-16T01:15:30.339Z,31.46
2022-08-16T01:17:57.524Z,31.37
2022-08-16T01:20:30.490Z,31.24
2022-08-16T01:23:10.167Z,31.12
2022-08-16T01:25:39.163Z,31.41
2022-08-16T01:28:08.287Z,31.37
2022-08-16T01:30:40.067Z,31.25
2022-08-16T01:33:19.278Z,31.27
2022-08-16T01:35:53.178Z,31.19
2022-08-16T01:38:25.841Z,31.22
2022-08-16T01:41:07.278Z,31.24
2022-08-16T01:43:35.486Z,31.11
2022-08-16T01:46:37.841Z,31.09
2022-08-16T01:48:59.254Z,31.01
2022-08-16T01:51:27.258Z,31.06
2022-08-16T01:53:56.084Z,31.07
2022-08-16T01:56:24.657Z,31.08
2022-08-16T01:58:54.841Z,31.06
2022-08-16T02:01:23.093Z,31.02
2022-08-16T02:03:53.490Z,30.92
2022-08-16T02:06:33.951Z,30.89
2022-08-16T02:09:05.142Z,30.99
2022-08-16T02:11:47.593Z,30.83
2022-08-16T02:14:26.595Z,30.73
2022-08-16T02:16:56.270Z,30.62
2022-08-16T02:19:24.626Z,30.77
2022-08-16T02:22:34.395Z,30.73
2022-08-16T02:25:00.468Z,30.61
2022-08-16T02:27:27.979Z,30.95
2022-08-16T02:30:04.986Z,30.73
2022-08-16T02:32:50.117Z,30.49
2022-08-16T02:35:22.899Z,30.40
2022-08-16T02:37:53.499Z,30.50
2022-08-16T02:40:24.788Z,30.48
2022-08-16T02:42:53.510Z,30.54
2022-08-16T02:45:24.911Z,30.70
2022-08-16T02:48:01.075Z,30.56
2022-08-16T02:50:54.257Z,30.30
2022-08-16T02:53:30.160Z,30.53
2022-08-16T02:55:59.117Z,30.49
2022-08-16T02:58:27.925Z,30.53
2022-08-16T03:00:57.793Z,30.46
2022-08-16T03:03:26.249Z,30.51
2022-08-16T03:05:53.642Z,30.50
2022-08-16T03:08:52.338Z,30.47
2022-08-16T03:11:16.629Z,30.37
2022-08-16T03:13:46.391Z,30.40
2022-08-16T03:16:32.945Z,30.49
2022-08-16T03:19:02.524Z,30.59
2022-08-16T03:21:38.224Z,30.31
2022-08-16T03:24:29.445Z,30.54
2022-08-16T03:26:57.989Z,30.58
2022-08-16T03:29:29.995Z,30.64
2022-08-16T03:31:59.323Z,30.59
2022-08-16T03:34:27.668Z,30.68
2022-08-16T03:36:55.045Z,30.54
2022-08-16T03:39:22.384Z,30.17
2022-08-16T03:41:59.254Z,30.16
2022-08-16T03:44:44.877Z,30.34
2022-08-16T03:47:18.949Z,30.31
2022-08-16T03:49:51.887Z,30.45
2022-08-16T03:52:20.678Z,30.53
2022-08-16T03:54:53.173Z,30.57
2022-08-16T03:57:31.624Z,30.29
2022-08-16T04:00:20.741Z,30.17
2022-08-16T04:03:07.101Z,30.33
2022-08-16T04:05:36.287Z,30.42
2022-08-16T04:08:23.086Z,30.51
2022-08-16T04:10:52.326Z,30.59
2022-08-16T04:13:20.296Z,30.68
2022-08-16T04:16:07.445Z,30.61
2022-08-16T04:18:37.009Z,30.70
2022-08-16T04:21:05.012Z,29.75
2022-08-16T04:23:33.315Z,30.22
2022-08-16T04:26:01.991Z,30.58
2022-08-16T04:28:53.605Z,30.77
2022-08-16T04:31:18.316Z,30.85
2022-08-16T04:33:51.067Z,30.91
2022-08-16T04:36:20.384Z,31.11
2022-08-16T04:38:49.951Z,31.13
2022-08-16T04:41:17.655Z,31.14
2022-08-16T04:43:45.489Z,31.34
2022-08-16T04:46:30.742Z,31.47
2022-08-16T04:49:04.434Z,31.68
2022-08-16T04:51:35.972Z,31.78
2022-08-16T04:54:03.800Z,31.72
2022-08-16T04:56:31.057Z,31.71
2022-08-16T04:58:58.233Z,31.75
2022-08-16T05:01:55.925Z,31.41
2022-08-16T05:04:19.579Z,31.39
2022-08-16T05:06:47.765Z,31.92
2022-08-16T05:09:16.509Z,31.86
2022-08-16T05:11:43.867Z,31.85
2022-08-16T05:14:11.592Z,31.58
2022-08-16T05:16:48.162Z,31.78
2022-08-16T05:19:20.122Z,32.22
2022-08-16T05:21:51.555Z,32.21
2022-08-16T05:24:22.015Z,32.28
2022-08-16T05:26:51.548Z,32.10
2022-08-16T05:29:20.639Z,31.55
2022-08-16T05:31:53.271Z,31.44
2022-08-16T05:34:22.457Z,30.81
2022-08-16T05:36:51.477Z,30.01
2022-08-16T05:39:20.648Z,28.76
2022-08-16T05:41:49.031Z,28.97
2022-08-16T05:44:23.982Z,30.35
2022-08-16T05:46:57.075Z,30.78
2022-08-16T05:49:39.286Z,30.75
2022-08-16T05:52:11.195Z,30.49
2022-08-16T05:54:45.928Z,29.80
2022-08-16T05:57:17.983Z,30.48
2022-08-16T05:59:47.323Z,30.23
2022-08-16T06:02:18.811Z,29.68
2022-08-16T06:04:46.935Z,29.97
2022-08-16T06:07:24.871Z,30.15
2022-08-16T06:09:58.314Z,29.99
2022-08-16T06:12:28.678Z,29.73
2022-08-16T06:15:01.828Z,29.36
2022-08-16T06:17:41.586Z,30.42
2022-08-16T06:20:15.373Z,29.98
2022-08-16T06:22:58.499Z,29.91
2022-08-16T06:25:36.179Z,29.86
2022-08-16T06:28:08.662Z,30.53
2022-08-16T06:30:43.506Z,29.50
2022-08-16T06:33:13.254Z,30.12
2022-08-16T06:35:47.695Z,30.24
2022-08-16T06:38:32.728Z,29.33
2022-08-16T06:41:06.732Z,29.26
2022-08-16T06:43:41.724Z,30.02
2022-08-16T06:46:21.349Z,29.28
2022-08-16T06:48:51.600Z,29.47
2022-08-16T06:51:19.681Z,29.73
2022-08-16T06:53:49.722Z,30.35
2022-08-16T06:56:23.277Z,29.31
2022-08-16T06:58:53.283Z,30.25
2022-08-16T07:01:42.826Z,30.34
2022-08-16T07:04:10.386Z,30.75
2022-08-16T07:06:43.252Z,31.12
2022-08-16T07:09:11.956Z,31.76
2022-08-16T07:11:46.053Z,32.20
2022-08-16T07:14:25.919Z,31.82
2022-08-16T07:16:58.878Z,30.57
2022-08-16T07:19:48.330Z,31.02
2022-08-16T07:22:38.078Z,31.73
2022-08-16T07:25:03.534Z,31.83
2022-08-16T07:27:32.063Z,31.48
2022-08-16T07:30:04.589Z,31.08
2022-08-16T07:32:32.857Z,31.10
2022-08-16T07:35:03.498Z,30.57
2022-08-16T07:37:30.713Z,30.41
2022-08-16T07:40:00.487Z,30.11
2022-08-16T07:42:35.027Z,29.92
2022-08-16T07:45:17.006Z,29.91
2022-08-16T07:47:44.676Z,29.70
2022-08-16T07:50:56.151Z,29.76
2022-08-16T07:53:01.951Z,29.25
2022-08-16T07:55:46.056Z,30.15
2022-08-16T07:58:18.149Z,30.35
2022-08-16T08:00:46.112Z,30.14
2022-08-16T08:03:14.987Z,30.66
2022-08-16T08:05:43.138Z,30.75
2022-08-16T08:08:11.988Z,30.11
2022-08-16T08:11:08.929Z,30.97
2022-08-16T08:13:42.453Z,30.75
2022-08-16T08:16:18.534Z,30.72
2022-08-16T08:18:50.135Z,31.05
2022-08-16T08:21:27.229Z,30.83
2022-08-16T08:23:57.696Z,31.12
2022-08-16T08:26:25.305Z,32.08
2022-08-16T08:28:52.703Z,32.05
2022-08-16T08:31:21.666Z,32.30
2022-08-16T08:33:51.517Z,31.52
2022-08-16T08:36:32.991Z,31.91
2022-08-16T08:39:12.639Z,31.55
2022-08-16T08:41:42.214Z,29.90
2022-08-16T08:44:28.851Z,31.08
2022-08-16T08:47:03.256Z,31.29
2022-08-16T08:49:46.046Z,31.05
2022-08-16T08:52:34.170Z,30.78
2022-08-16T08:55:09.166Z,29.96
2022-08-16T08:57:40.768Z,30.44
2022-08-16T09:00:13.511Z,30.17
2022-08-16T09:02:42.735Z,31.23
2022-08-16T09:05:15.267Z,31.68
2022-08-16T09:08:00.522Z,31.76
2022-08-16T09:10:31.437Z,31.77
2022-08-16T09:12:58.982Z,32.21
2022-08-16T09:15:33.237Z,32.51
2022-08-16T09:18:02.096Z,32.67
2022-08-16T09:20:59.075Z,32.56
2022-08-16T09:23:29.106Z,33.43
2022-08-16T09:25:56.554Z,33.73
2022-08-16T09:29:14.065Z,33.12
2022-08-16T09:31:15.233Z,33.64
2022-08-16T09:33:42.982Z,33.96
2022-08-16T09:36:12.153Z,33.69
2022-08-16T09:38:59.891Z,33.74
2022-08-16T09:41:28.159Z,34.11
2022-08-16T09:43:59.582Z,33.36
2022-08-16T09:46:45.991Z,34.28
2022-08-16T09:49:16.767Z,34.13
2022-08-16T09:51:49.540Z,34.65
2022-08-16T09:54:20.940Z,35.26
2022-08-16T09:56:53.318Z,34.52
2022-08-16T09:59:25.489Z,34.73
2022-08-16T10:01:58.331Z,35.02
2022-08-16T10:04:33.456Z,35.14
2022-08-16T10:07:15.290Z,36.01
2022-08-16T10:09:54.241Z,36.71
2022-08-16T10:12:45.597Z,35.26
2022-08-16T10:15:15.559Z,35.40
2022-08-16T10:17:45.658Z,36.39
2022-08-16T10:20:34.687Z,35.94
2022-08-16T10:23:16.914Z,36.70
2022-08-16T10:27:18.897Z,36.40
2022-08-16T10:28:39.596Z,35.69
2022-08-16T10:31:08.275Z,36.57
2022-08-16T10:33:40.113Z,37.33
2022-08-16T10:36:08.849Z,36.55
2022-08-16T10:38:37.309Z,36.80
2022-08-16T10:41:06.902Z,37.12
2022-08-16T10:43:35.594Z,36.55
2022-08-16T10:46:04.171Z,37.32
2022-08-16T10:48:52.420Z,37.85
2022-08-16T10:51:19.559Z,35.95
2022-08-16T10:53:46.843Z,36.81
2022-08-16T10:56:51.382Z,36.49
2022-08-16T11:15:59.276Z,38.97
2022-08-16T11:19:03.287Z,38.78
2022-08-16T11:21:29.209Z,37.76
2022-08-16T11:23:59.572Z,38.01
2022-08-16T11:26:27.297Z,38.41
2022-08-16T11:31:45.885Z,37.35
2022-08-16T11:34:21.224Z,36.58
2022-08-16T11:36:59.334Z,35.83
2022-08-16T11:39:29.113Z,36.67
2022-08-16T11:41:57.848Z,36.98
2022-08-16T11:44:43.699Z,35.61
2022-08-16T11:47:13.080Z,36.00
2022-08-16T11:49:40.212Z,36.33
2022-08-16T11:52:07.532Z,35.34
2022-08-16T11:54:36.792Z,36.01
2022-08-16T11:57:08.911Z,35.25
2022-08-16T11:59:40.010Z,35.19
2022-08-16T12:02:31.028Z,35.88
2022-08-16T12:04:55.167Z,35.89
2022-08-16T12:07:23.920Z,35.51
2022-08-16T12:09:53.250Z,36.25
2022-08-16T12:12:37.714Z,36.04
2022-08-16T12:15:05.812Z,37.21
2022-08-16T12:17:33.829Z,36.87
2022-08-16T12:20:01.651Z,37.17
2022-08-16T12:22:29.154Z,36.62
2022-08-16T12:24:56.479Z,36.81
2022-08-16T12:27:24.591Z,37.76
2022-08-16T12:29:58.610Z,37.23
2022-08-16T12:32:37.756Z,37.20
2022-08-16T12:35:07.499Z,37.23
2022-08-16T12:37:35.021Z,37.65
2022-08-16T12:40:02.465Z,37.29
2022-08-16T12:42:35.791Z,35.73
2022-08-16T12:45:04.759Z,36.26
2022-08-16T12:47:50.791Z,36.59
2022-08-16T12:50:19.993Z,36.34
2022-08-16T12:52:53.289Z,35.66
2022-08-16T12:55:22.035Z,35.85
2022-08-16T12:57:58.318Z,36.08
2022-08-16T13:00:33.005Z,36.08
2022-08-16T13:03:01.612Z,35.86
2022-08-16T13:05:29.351Z,34.68
2022-08-16T13:07:58.720Z,35.68
2022-08-16T13:10:36.983Z,36.32
2022-08-16T13:13:06.254Z,36.56
2022-08-16T13:15:36.286Z,36.43
2022-08-16T13:18:27.551Z,35.62
2022-08-16T13:21:02.246Z,35.97
2022-08-16T13:23:30.343Z,36.04
2022-08-16T13:25:57.771Z,35.38
2022-08-16T13:28:24.994Z,35.60
2022-08-16T13:30:53.928Z,35.22
2022-08-16T13:33:24.765Z,35.77
2022-08-16T13:35:58.049Z,36.60
2022-08-16T13:38:27.502Z,36.70
2022-08-16T13:40:58.761Z,37.11
2022-08-16T13:43:27.162Z,35.94
2022-08-16T13:45:55.932Z,36.58
2022-08-16T13:48:24.713Z,36.88
2022-08-16T13:50:56.655Z,36.79
2022-08-16T13:53:28.324Z,37.00
2022-08-16T13:55:58.497Z,36.64
2022-08-16T13:58:36.697Z,36.90
2022-08-16T14:01:14.956Z,37.17
2022-08-16T14:03:44.651Z,37.25
2022-08-16T14:06:12.362Z,36.75
2022-08-16T14:08:42.348Z,37.37
2022-08-16T14:11:11.795Z,36.76
2022-08-16T14:13:39.633Z,36.43
2022-08-16T14:16:12.335Z,35.90
2022-08-16T14:18:46.380Z,36.17
2022-08-16T14:21:13.550Z,36.33
2022-08-16T14:23:40.734Z,37.31
2022-08-16T14:26:08.720Z,37.85
2022-08-16T14:28:35.971Z,37.68
2022-08-16T14:31:03.428Z,37.97
2022-08-16T14:33:32.989Z,38.10
2022-08-16T14:36:00.278Z,38.16
2022-08-16T14:38:29.755Z,37.98
2022-08-16T14:41:10.393Z,37.79
2022-08-16T14:43:37.878Z,38.18
2022-08-16T14:46:07.813Z,36.78
2022-08-16T14:48:35.033Z,35.93
2022-08-16T14:51:02.185Z,36.77
2022-08-16T14:53:32.614Z,36.97
2022-08-16T14:55:59.952Z,37.56
2022-08-16T14:58:34.928Z,37.80
2022-08-16T15:01:06.274Z,37.65
2022-08-16T15:03:37.753Z,37.99
2022-08-16T15:06:05.289Z,37.35
2022-08-16T15:08:37.314Z,37.84
2022-08-16T15:11:07.938Z,38.28
2022-08-16T15:13:35.794Z,38.08
2022-08-16T15:16:03.780Z,37.42
2022-08-16T15:18:32.312Z,37.06
2022-08-16T15:21:03.970Z,36.85
2022-08-16T15:23:33.504Z,37.13
2022-08-16T15:26:03.599Z,37.34
2022-08-16T15:28:32.668Z,36.59
2022-08-16T15:31:03.602Z,37.07
2022-08-16T15:33:32.770Z,37.49
2022-08-16T15:36:00.049Z,37.64
2022-08-16T15:38:58.146Z,37.25
2022-08-16T15:41:29.236Z,37.98
2022-08-16T15:44:05.265Z,37.83
2022-08-16T15:46:58.629Z,36.90
2022-08-16T15:49:37.072Z,36.86
2022-08-16T15:52:16.023Z,36.85
2022-08-16T15:54:52.616Z,37.34
2022-08-16T15:57:24.662Z,36.91
2022-08-16T15:59:59.314Z,36.48
2022-08-16T16:02:38.916Z,36.15
2022-08-16T16:05:09.573Z,36.61
2022-08-16T16:07:37.523Z,36.69
2022-08-16T16:10:13.343Z,36.55
2022-08-16T16:12:51.224Z,35.77
2022-08-16T16:15:24.338Z,36.13
2022-08-16T16:17:52.435Z,35.42
2022-08-16T16:20:21.265Z,35.70
2022-08-16T16:22:49.429Z,35.55
2022-08-16T16:25:17.431Z,35.03
2022-08-16T16:27:44.575Z,35.18
2022-08-16T16:30:33.753Z,35.57
2022-08-16T16:33:01.039Z,35.07
2022-08-16T16:35:28.976Z,34.81
2022-08-16T16:37:59.973Z,35.26
2022-08-16T16:40:32.747Z,34.99
2022-08-16T16:43:01.277Z,34.93
2022-08-16T16:45:33.927Z,35.10
2022-08-16T16:48:11.744Z,34.63
2022-08-16T16:50:40.772Z,34.17
2022-08-16T16:53:16.678Z,34.80
2022-08-16T16:55:51.745Z,34.16
2022-08-16T16:58:38.989Z,34.65
2022-08-16T17:01:10.517Z,35.06
2022-08-16T17:03:38.671Z,35.14
2022-08-16T17:06:09.258Z,35.19
2022-08-16T17:08:40.816Z,35.36
2022-08-16T17:11:12.599Z,35.63
2022-08-16T17:13:40.352Z,36.17
2022-08-16T17:16:09.434Z,36.32
2022-08-16T17:19:16.453Z,36.86
2022-08-16T17:21:36.965Z,37.35
2022-08-16T17:24:17.964Z,37.67
2022-08-16T17:26:48.862Z,37.77
2022-08-16T17:29:16.752Z,37.84
2022-08-16T17:31:45.512Z,37.67
2022-08-16T17:34:30.789Z,37.57
2022-08-16T17:37:00.652Z,37.79
2022-08-16T17:39:33.195Z,38.00
2022-08-16T17:42:01.101Z,37.86
2022-08-16T17:44:28.748Z,37.08
2022-08-16T17:46:55.990Z,37.32
2022-08-16T17:49:23.395Z,36.99
2022-08-16T17:51:50.539Z,36.85
2022-08-16T17:54:21.401Z,36.12
2022-08-16T17:57:00.733Z,35.48
2022-08-16T17:59:28.693Z,35.87
2022-08-16T18:01:56.295Z,35.96
2022-08-16T18:04:48.101Z,35.46
2022-08-16T18:07:11.626Z,35.87
2022-08-16T18:09:40.741Z,34.77
2022-08-16T18:12:44.419Z,35.13
2022-08-16T18:15:06.426Z,35.86
2022-08-16T18:17:33.677Z,35.64
2022-08-16T18:20:00.820Z,35.98
2022-08-16T18:22:30.961Z,36.11
2022-08-16T18:24:58.373Z,35.32
2022-08-16T18:27:27.253Z,35.90
2022-08-16T18:29:54.986Z,36.07
2022-08-16T18:32:24.828Z,36.17
2022-08-16T18:34:54.321Z,36.46
2022-08-16T18:37:25.062Z,36.29
2022-08-16T18:39:52.356Z,36.46
2022-08-16T18:42:20.506Z,36.22
2022-08-16T18:44:47.945Z,35.59
2022-08-16T18:47:15.286Z,35.55
2022-08-16T18:49:42.504Z,35.55
2022-08-16T18:52:13.673Z,35.92
2022-08-16T18:55:02.920Z,35.95
2022-08-16T18:57:42.465Z,35.77
2022-08-16T19:00:12.239Z,35.98
2022-08-16T19:02:56.144Z,35.75
2022-08-16T19:05:27.389Z,35.65
2022-08-16T19:07:54.806Z,35.93
2022-08-16T19:10:21.989Z,35.49
2022-08-16T19:12:49.526Z,35.51
2022-08-16T19:15:18.362Z,35.31
2022-08-16T19:17:45.991Z,35.26
2022-08-16T19:20:14.685Z,35.21
2022-08-16T19:25:48.578Z,35.09
2022-08-16T19:28:49.596Z,34.97
2022-08-16T19:31:05.498Z,34.90
2022-08-16T19:33:33.032Z,34.96
2022-08-16T19:36:00.322Z,35.03
2022-08-16T19:38:27.676Z,35.04
2022-08-16T19:40:55.189Z,35.02
2022-08-16T19:43:22.446Z,35.00
2022-08-16T19:45:49.829Z,34.64
2022-08-16T19:48:17.591Z,34.73
2022-08-16T19:50:45.131Z,34.66
2022-08-16T19:53:18.615Z,34.67
2022-08-16T19:55:47.419Z,34.38
2022-08-16T19:58:15.718Z,34.41
2022-08-16T20:00:43.356Z,34.16
2022-08-16T20:03:15.731Z,34.09
2022-08-16T20:05:43.864Z,34.31
2022-08-16T20:08:11.823Z,34.41
2022-08-16T20:10:40.670Z,34.47
2022-08-16T20:13:12.160Z,34.41
2022-08-16T20:15:41.126Z,34.32
2022-08-16T20:18:21.566Z,34.12
2022-08-16T20:20:53.689Z,34.15
2022-08-16T20:23:24.820Z,34.19
2022-08-16T20:25:53.571Z,34.29
2022-08-16T20:28:39.489Z,34.19
2022-08-16T20:31:08.145Z,34.20
2022-08-16T20:33:35.292Z,34.14
2022-08-16T20:36:02.521Z,34.13
2022-08-16T20:38:31.488Z,34.01
2022-08-16T20:40:58.723Z,33.93
2022-08-16T20:43:25.919Z,33.54
2022-08-16T20:45:53.350Z,33.71
2022-08-16T20:48:20.547Z,33.62
2022-08-16T20:50:47.708Z,33.53
2022-08-16T20:53:15.178Z,33.69
2022-08-16T20:55:44.264Z,33.32
2022-08-16T20:58:12.802Z,33.18
2022-08-16T21:00:40.389Z,33.17
2022-08-16T21:03:08.338Z,33.07
2022-08-16T21:05:35.640Z,33.22
2022-08-16T21:08:32.817Z,33.03
2022-08-16T21:10:50.708Z,33.03
2022-08-16T21:13:18.114Z,33.01
2022-08-16T21:15:45.610Z,32.90
2022-08-16T21:18:12.758Z,32.81
2022-08-16T21:20:40.223Z,32.96
2022-08-16T21:23:08.842Z,32.96
2022-08-16T21:25:37.244Z,32.77
2022-08-16T21:28:39.259Z,32.88
2022-08-16T21:30:59.644Z,32.87
2022-08-16T21:33:27.072Z,32.70
2022-08-16T21:35:54.273Z,32.60
2022-08-16T21:38:29.433Z,32.46
2022-08-16T21:40:59.069Z,32.58
2022-08-16T21:43:28.724Z,32.59
2022-08-16T21:45:56.168Z,32.63
2022-08-16T21:48:35.002Z,32.68
2022-08-16T21:51:04.170Z,32.60
2022-08-16T21:53:31.589Z,32.57
2022-08-16T21:55:58.815Z,32.47
2022-08-16T21:58:26.093Z,32.38
2022-08-16T22:00:53.751Z,32.48
2022-08-16T22:03:21.248Z,32.27
2022-08-16T22:06:10.092Z,32.16
2022-08-16T22:08:39.519Z,32.13
2022-08-16T22:11:21.216Z,32.16
2022-08-16T22:13:58.200Z,31.95
2022-08-16T22:16:27.526Z,31.86
2022-08-16T22:18:55.036Z,31.86
2022-08-16T22:21:22.190Z,31.86
2022-08-16T22:23:57.153Z,31.94
2022-08-16T22:26:32.310Z,31.60
2022-08-16T22:29:00.572Z,31.62
2022-08-16T22:31:28.624Z,31.76
2022-08-16T22:33:56.774Z,31.72
2022-08-16T22:36:28.637Z,31.83
2022-08-16T22:38:58.053Z,31.53
2022-08-16T22:41:26.573Z,31.44
2022-08-16T22:43:53.743Z,31.37
2022-08-16T22:46:21.203Z,31.05
2022-08-16T22:48:51.168Z,31.15
2022-08-16T22:51:18.898Z,30.69
2022-08-16T22:53:46.339Z,31.05
2022-08-16T22:56:13.528Z,31.09
2022-08-16T22:58:40.780Z,31.40
2022-08-16T23:01:08.571Z,31.36
2022-08-16T23:03:36.070Z,31.53
2022-08-16T23:06:03.486Z,31.63
2022-08-16T23:08:35.942Z,31.64
2022-08-16T23:11:21.038Z,31.29
2022-08-16T23:13:53.149Z,31.11
2022-08-16T23:16:33.717Z,31.17
2022-08-16T23:19:06.558Z,31.32
2022-08-16T23:21:33.934Z,31.29
2022-08-16T23:24:01.569Z,31.09
2022-08-16T23:26:45.365Z,31.09
2022-08-16T23:29:23.629Z,31.23
2022-08-16T23:31:56.359Z,31.18
2022-08-16T23:34:24.097Z,31.28
2022-08-16T23:36:51.282Z,31.22
2022-08-16T23:39:18.551Z,31.14
2022-08-16T23:41:45.976Z,31.31
2022-08-16T23:44:55.844Z,31.22
2022-08-16T23:47:00.543Z,31.39
2022-08-16T23:49:56.846Z,31.41
2022-08-16T23:52:15.119Z,31.35
2022-08-16T23:54:42.284Z,31.26
2022-08-16T23:57:09.429Z,31.23
2022-08-16T23:59:52.571Z,31.38
